Hua Kai — HO7805 — position and weather

sailwx.info

Track history (hours):
 
Tides and Currents Weather Stations Pressure Air Temp Water Temp Dewpoint Dewpoint Depression Visibility Wind Speed Wind Dir Waves Ship Positions

Hua Kai

Last reported at 2017-Dec-11 16:59 UTC. Time now 2017-Dec-13 13:03 UTC.
Position N 35°04' E 136°52'.

Length 100 m; draft 4.3 m.

Type: Cargo ship. MMSI: 370335000.

Date/timePositionNaut miles runAvg speedWind from/ knotsBaromVisibWave heightAir tempDewpointWater temp
2017-Dec-11 16:59N 35°04' E 136°52'0 0.0
2017-Dec-11 16:29N 35°04' E 136°52'0 0.0
2017-Dec-11 15:59N 35°04' E 136°52'0 0.0
2017-Dec-11 15:29N 35°04' E 136°52'0 0.0
2017-Dec-11 14:59N 35°04' E 136°52'0 0.0
2017-Dec-11 14:29N 35°04' E 136°52'0 0.0
2017-Dec-11 13:59N 35°04' E 136°52'0 0.0
2017-Dec-11 13:29N 35°04' E 136°52'0 0.0
2017-Dec-11 12:56N 35°04' E 136°52'0 0.0
2017-Dec-11 12:29N 35°04' E 136°52'0 0.0
2017-Dec-11 11:59N 35°04' E 136°52'0 0.0
2017-Dec-11 11:29N 35°04' E 136°52'0 0.0
2017-Dec-11 10:59N 35°04' E 136°52'0 0.0
2017-Dec-11 10:29N 35°04' E 136°52'0 0.0
2017-Dec-11 09:59N 35°04' E 136°52'0 0.0
2017-Dec-11 09:29N 35°04' E 136°52'0 0.0
2017-Dec-11 08:59N 35°04' E 136°52'0 0.0
2017-Dec-11 08:29N 35°04' E 136°52'0 0.0
2017-Dec-11 07:59N 35°04' E 136°52'0 0.0
2017-Dec-11 07:28N 35°04' E 136°52'0 0.0
2017-Dec-11 06:58N 35°04' E 136°52'0 0.0
2017-Dec-11 06:28N 35°04' E 136°52'0 0.0
2017-Dec-11 05:58N 35°04' E 136°52'0 0.0
2017-Dec-11 05:28N 35°04' E 136°52'0 0.0
2017-Dec-11 04:58N 35°04' E 136°52'0 0.0
2017-Dec-11 04:28N 35°04' E 136°52'0 0.0
2017-Dec-11 03:58N 35°04' E 136°52'0 0.0
2017-Dec-11 03:28N 35°04' E 136°52'0 0.0
2017-Dec-11 02:58N 35°04' E 136°52'0 0.0
2017-Dec-11 02:28N 35°04' E 136°52'0 0.0
2017-Dec-11 01:58N 35°04' E 136°52'0 0.0
2017-Dec-11 01:25N 35°04' E 136°52'0 0.0
2017-Dec-11 00:55N 35°04' E 136°52'0 0.5
2017-Dec-11 00:31N 35°04' E 136°52'4 7.8
2017-Dec-11 00:01N 35°01' E 136°50'510.5
2017-Dec-10 23:30N 34°56' E 136°47'510.6
2017-Dec-10 23:01N 34°51' E 136°46'510.7
2017-Dec-10 22:30N 34°46' E 136°48'24 8.9
2017-Dec-10 19:52N 34°32' E 137°11'82 9.9
2017-Dec-10 11:39N 34°33' E 138°50'1 9.1
2017-Dec-10 11:30N 34°33' E 138°52'5 9.1
2017-Dec-10 11:00N 34°33' E 138°57'5 8.6
2017-Dec-10 10:28N 34°34' E 139°03'4 8.1
2017-Dec-10 10:00N 34°35' E 139°07'6 8.2
2017-Dec-10 09:19N 34°37' E 139°14'44 8.5
2017-Dec-10 04:05N 34°56' E 140°03'4 8.5
2017-Dec-10 03:40N 34°58' E 140°06'396 9.7
2017-Dec-08 10:41N 41°29' E 141°28'911.3
2017-Dec-08 09:52N 41°31' E 141°16'512.5
2017-Dec-08 09:31N 41°33' E 141°10'612.0
2017-Dec-08 09:01N 41°34' E 141°02'510.9
2017-Dec-08 08:30N 41°36' E 140°55'510.5
2017-Dec-08 08:00N 41°34' E 140°49'611.1
2017-Dec-08 07:30N 41°31' E 140°42'612.5
2017-Dec-08 07:01N 41°28' E 140°35'612.7
2017-Dec-08 06:30N 41°24' E 140°28'812.2
2017-Dec-08 05:51N 41°21' E 140°19'1212.4
2017-Dec-08 04:54N 41°20' E 140°03'911.5
2017-Dec-08 04:08N 41°26' E 139°54'211.5
2017-Dec-08 03:59N 41°27' E 139°53'511.4
2017-Dec-08 03:30N 41°32' E 139°48'810.3
2017-Dec-08 02:46N 41°38' E 139°42'310.4
2017-Dec-08 02:30N 41°40' E 139°40'  
Track history (hours):
 
Tides and Currents Weather Stations Pressure Air Temp Water Temp Dewpoint Dewpoint Depression Visibility Wind Speed Wind Dir Waves Ship Positions

Hua Kai

Last reported at 2017-Dec-11 16:59 UTC. Time now 2017-Dec-13 13:03 UTC.
Position N 35°04' E 136°52'.

Length 100 m; draft 4.3 m.

Type: Cargo ship. MMSI: 370335000.

Date/timePositionNaut miles runAvg speedWind from/ knotsBaromVisibWave heightAir tempDewpointWater temp
2017-Dec-11 16:59N 35°04' E 136°52'0 0.0
2017-Dec-11 16:29N 35°04' E 136°52'0 0.0
2017-Dec-11 15:59N 35°04' E 136°52'0 0.0
2017-Dec-11 15:29N 35°04' E 136°52'0 0.0
2017-Dec-11 14:59N 35°04' E 136°52'0 0.0
2017-Dec-11 14:29N 35°04' E 136°52'0 0.0
2017-Dec-11 13:59N 35°04' E 136°52'0 0.0
2017-Dec-11 13:29N 35°04' E 136°52'0 0.0
2017-Dec-11 12:56N 35°04' E 136°52'0 0.0
2017-Dec-11 12:29N 35°04' E 136°52'0 0.0
2017-Dec-11 11:59N 35°04' E 136°52'0 0.0
2017-Dec-11 11:29N 35°04' E 136°52'0 0.0
2017-Dec-11 10:59N 35°04' E 136°52'0 0.0
2017-Dec-11 10:29N 35°04' E 136°52'0 0.0
2017-Dec-11 09:59N 35°04' E 136°52'0 0.0
2017-Dec-11 09:29N 35°04' E 136°52'0 0.0
2017-Dec-11 08:59N 35°04' E 136°52'0 0.0
2017-Dec-11 08:29N 35°04' E 136°52'0 0.0
2017-Dec-11 07:59N 35°04' E 136°52'0 0.0
2017-Dec-11 07:28N 35°04' E 136°52'0 0.0
2017-Dec-11 06:58N 35°04' E 136°52'0 0.0
2017-Dec-11 06:28N 35°04' E 136°52'0 0.0
2017-Dec-11 05:58N 35°04' E 136°52'0 0.0
2017-Dec-11 05:28N 35°04' E 136°52'0 0.0
2017-Dec-11 04:58N 35°04' E 136°52'0 0.0
2017-Dec-11 04:28N 35°04' E 136°52'0 0.0
2017-Dec-11 03:58N 35°04' E 136°52'0 0.0
2017-Dec-11 03:28N 35°04' E 136°52'0 0.0
2017-Dec-11 02:58N 35°04' E 136°52'0 0.0
2017-Dec-11 02:28N 35°04' E 136°52'0 0.0
2017-Dec-11 01:58N 35°04' E 136°52'0 0.0
2017-Dec-11 01:25N 35°04' E 136°52'0 0.0
2017-Dec-11 00:55N 35°04' E 136°52'0 0.5
2017-Dec-11 00:31N 35°04' E 136°52'4 7.8
2017-Dec-11 00:01N 35°01' E 136°50'510.5
2017-Dec-10 23:30N 34°56' E 136°47'510.6
2017-Dec-10 23:01N 34°51' E 136°46'510.7
2017-Dec-10 22:30N 34°46' E 136°48'24 8.9
2017-Dec-10 19:52N 34°32' E 137°11'82 9.9
2017-Dec-10 11:39N 34°33' E 138°50'1 9.1
2017-Dec-10 11:30N 34°33' E 138°52'5 9.1
2017-Dec-10 11:00N 34°33' E 138°57'5 8.6
2017-Dec-10 10:28N 34°34' E 139°03'4 8.1
2017-Dec-10 10:00N 34°35' E 139°07'6 8.2
2017-Dec-10 09:19N 34°37' E 139°14'44 8.5
2017-Dec-10 04:05N 34°56' E 140°03'4 8.5
2017-Dec-10 03:40N 34°58' E 140°06'396 9.7
2017-Dec-08 10:41N 41°29' E 141°28'911.3
2017-Dec-08 09:52N 41°31' E 141°16'512.5
2017-Dec-08 09:31N 41°33' E 141°10'612.0
2017-Dec-08 09:01N 41°34' E 141°02'510.9
2017-Dec-08 08:30N 41°36' E 140°55'510.5
2017-Dec-08 08:00N 41°34' E 140°49'611.1
2017-Dec-08 07:30N 41°31' E 140°42'612.5
2017-Dec-08 07:01N 41°28' E 140°35'612.7
2017-Dec-08 06:30N 41°24' E 140°28'812.2
2017-Dec-08 05:51N 41°21' E 140°19'1212.4
2017-Dec-08 04:54N 41°20' E 140°03'911.5
2017-Dec-08 04:08N 41°26' E 139°54'211.5
2017-Dec-08 03:59N 41°27' E 139°53'511.4
2017-Dec-08 03:30N 41°32' E 139°48'810.3
2017-Dec-08 02:46N 41°38' E 139°42'310.4
2017-Dec-08 02:30N 41°40' E 139°40'  

Dump ship's entire track history